Time;durP1;ratioP1;P1;durP2;ratioP2;P2;SDS_P1;SDS_P2;PMS_P1;PMS_P2;Temp;Humidity;BMP_temperature;BMP_pressure;BME280_temperature;BME280_humidity;BME280_pressure;Samples;Min_cycle;Max_cycle;Signal;HPM_P1;HPM_P2
2022/04/02 00:01:05;;;;;;;8.10;2.20;;;;;;;2.88;61.67;101646.72;5077414;28;20470;-67
2022/04/02 00:03:30;;;;;;;3.75;2.08;;;;;;;2.83;61.27;101650.53;5095514;28;20030;-67
2022/04/02 00:05:55;;;;;;;4.35;2.05;;;;;;;2.71;61.71;101650.53;5095494;28;20039;-67
2022/04/02 00:08:21;;;;;;;5.85;2.13;;;;;;;2.78;60.30;101655.97;5095502;28;20111;-67
2022/04/02 00:10:46;;;;;;;5.30;2.20;;;;;;;2.70;61.17;101648.06;5095482;28;20031;-67
2022/04/02 00:13:11;;;;;;;6.05;2.38;;;;;;;2.82;60.18;101651.44;5095430;28;20077;-67
2022/04/02 00:15:37;;;;;;;4.05;2.30;;;;;;;2.62;60.15;101647.84;5077131;28;20114;-67
2022/04/02 00:18:02;;;;;;;4.63;2.10;;;;;;;2.76;60.16;101645.06;5095068;28;20020;-67
2022/04/02 00:20:27;;;;;;;4.00;1.92;;;;;;;2.72;60.13;101648.78;5075823;28;20111;-69
2022/04/02 00:25:37;;;;;;;5.38;2.17;;;;;;;2.78;59.63;101648.31;5095509;28;20039;-66
2022/04/02 00:28:03;;;;;;;4.57;2.28;;;;;;;2.67;60.35;101653.41;5076908;28;20471;-67
2022/04/02 00:30:29;;;;;;;5.78;2.00;;;;;;;2.69;60.78;101657.47;5095433;28;20439;-67
2022/04/02 00:32:54;;;;;;;4.90;1.98;;;;;;;2.60;59.93;101650.50;5095274;28;20095;-67
2022/04/02 00:35:20;;;;;;;6.32;2.30;;;;;;;2.66;60.49;101655.16;5076763;28;20052;-67
2022/04/02 00:37:45;;;;;;;7.32;2.40;;;;;;;2.61;60.22;101659.78;5095272;28;20020;-67
2022/04/02 00:40:11;;;;;;;4.47;2.10;;;;;;;2.52;59.99;101654.56;5075236;28;20020;-67
2022/04/02 00:42:37;;;;;;;3.30;2.00;;;;;;;2.55;60.17;101657.69;5092950;28;20036;-66
2022/04/02 00:45:03;;;;;;;4.10;2.10;;;;;;;2.40;60.58;101651.97;5075676;28;20028;-65
2022/04/02 00:47:28;;;;;;;7.22;2.30;;;;;;;2.49;60.52;101663.25;5076227;28;20028;-66
2022/04/02 00:49:54;;;;;;;8.60;2.30;;;;;;;2.48;60.68;101659.06;5094885;28;20454;-66
2022/04/02 00:52:20;;;;;;;3.78;2.15;;;;;;;2.41;60.93;101653.59;5076248;28;20047;-68
2022/04/02 00:54:49;;;;;;;5.13;2.20;;;;;;;2.34;60.05;101649.06;5094366;28;20030;-66
2022/04/02 00:57:15;;;;;;;3.33;2.00;;;;;;;2.39;61.51;101663.09;5076127;28;20019;-66
2022/04/02 00:59:40;;;;;;;4.97;2.25;;;;;;;2.38;61.42;101655.56;5076153;28;20386;-66
2022/04/02 01:02:05;;;;;;;4.38;2.05;;;;;;;2.45;61.17;101651.66;5094160;28;20024;-66
2022/04/02 01:04:31;;;;;;;5.45;2.13;;;;;;;2.33;60.68;101661.00;5076130;28;20036;-66
2022/04/02 01:06:59;;;;;;;7.95;2.15;;;;;;;2.26;61.19;101660.63;5094282;28;20490;-66
2022/04/02 01:09:25;;;;;;;3.67;2.22;;;;;;;2.33;61.46;101661.00;5094818;28;20032;-66
2022/04/02 01:11:52;;;;;;;4.88;1.98;;;;;;;2.37;60.57;101661.59;5094289;28;20104;-67
2022/04/02 01:14:18;;;;;;;3.95;2.13;;;;;;;2.34;61.03;101662.63;5094422;28;20028;-67
2022/04/02 01:16:43;;;;;;;3.53;2.00;;;;;;;2.32;61.65;101663.66;5076215;28;20077;-66
2022/04/02 01:19:08;;;;;;;4.82;2.20;;;;;;;2.28;60.97;101664.81;5076542;28;20040;-66
2022/04/02 01:21:34;;;;;;;3.85;2.20;;;;;;;2.28;61.64;101665.63;5094139;28;20024;-66
2022/04/02 01:24:00;;;;;;;4.38;2.13;;;;;;;2.27;61.11;101671.63;5094172;28;20474;-66
2022/04/02 01:26:26;;;;;;;5.22;1.95;;;;;;;2.32;60.67;101668.75;5075738;28;20027;-66
2022/04/02 01:28:54;;;;;;;5.38;2.25;;;;;;;2.40;60.81;101671.56;5094535;28;20020;-66
2022/04/02 01:31:21;;;;;;;6.10;2.17;;;;;;;2.32;60.50;101668.75;5093860;28;20076;-67
2022/04/02 01:33:48;;;;;;;4.03;1.88;;;;;;;2.28;61.49;101667.38;5093942;28;20024;-66
2022/04/02 01:36:14;;;;;;;6.45;2.05;;;;;;;2.29;60.98;101663.88;5093760;28;20020;-66
2022/04/02 01:38:39;;;;;;;3.97;2.10;;;;;;;2.16;60.67;101662.22;5075394;28;20509;-67
2022/04/02 01:41:05;;;;;;;6.63;2.33;;;;;;;2.16;61.61;101653.75;5073988;28;20055;-67
2022/04/02 01:43:30;;;;;;;5.82;2.20;;;;;;;2.19;60.81;101658.63;5075178;28;20483;-66
2022/04/02 01:45:58;;;;;;;5.38;2.00;;;;;;;2.28;61.51;101649.50;5091829;28;20024;-67
2022/04/02 01:48:24;;;;;;;4.68;2.03;;;;;;;2.22;60.84;101654.13;5074970;28;20048;-66
2022/04/02 01:50:49;;;;;;;6.93;2.30;;;;;;;2.30;61.08;101665.50;5073869;28;20130;-67
2022/04/02 01:53:15;;;;;;;8.07;2.15;;;;;;;2.19;62.29;101659.44;5074528;28;20470;-66
2022/04/02 01:55:40;;;;;;;5.95;2.20;;;;;;;2.17;61.21;101661.28;5093321;28;20032;-66
2022/04/02 01:58:06;;;;;;;4.32;2.28;;;;;;;2.18;61.48;101678.22;5075133;28;20028;-65
2022/04/02 02:00:31;;;;;;;5.93;2.00;;;;;;;2.25;61.31;101668.41;5075294;28;20140;-66
2022/04/02 02:02:56;;;;;;;5.93;2.30;;;;;;;2.20;61.30;101678.91;5093356;28;20024;-66
2022/04/02 02:05:21;;;;;;;4.65;2.42;;;;;;;2.15;62.05;101683.53;5092497;28;20367;-67
2022/04/02 02:07:50;;;;;;;4.35;2.25;;;;;;;2.15;61.62;101672.53;5074211;28;20080;-66
2022/04/02 02:10:16;;;;;;;4.90;2.15;;;;;;;2.11;61.74;101684.69;5075176;28;20056;-67
2022/04/02 02:12:42;;;;;;;6.43;2.15;;;;;;;2.05;61.91;101680.03;5092679;28;20102;-66
2022/04/02 02:15:08;;;;;;;4.10;2.00;;;;;;;2.09;62.82;101683.97;5074938;28;20024;-67
2022/04/02 02:17:34;;;;;;;4.93;2.20;;;;;;;2.09;61.79;101676.31;5093049;28;20111;-67
2022/04/02 02:19:59;;;;;;;3.83;2.10;;;;;;;2.02;61.83;101685.34;5093157;28;20104;-67
2022/04/02 02:22:24;;;;;;;6.38;3.30;;;;;;;2.06;61.35;101675.72;5092947;28;20027;-67
2022/04/02 02:24:50;;;;;;;4.65;2.03;;;;;;;1.94;61.43;101685.88;5092978;28;20020;-65
2022/04/02 02:27:15;;;;;;;5.47;2.30;;;;;;;1.96;62.39;101688.34;5092946;28;20031;-66
2022/04/02 02:29:40;;;;;;;7.05;2.17;;;;;;;1.93;62.03;101693.66;5092965;28;20055;-66
2022/04/02 02:32:06;;;;;;;4.88;1.88;;;;;;;2.04;61.40;101686.03;5093007;28;20020;-67
2022/04/02 02:37:16;;;;;;;3.15;1.98;;;;;;;1.94;62.54;101690.16;5093323;28;20105;-67
2022/04/02 02:39:42;;;;;;;3.72;2.13;;;;;;;1.87;62.41;101686.41;5074679;28;20471;-66
2022/04/02 02:42:08;;;;;;;2.72;1.80;;;;;;;1.92;62.65;101686.91;5092943;28;20069;-66
2022/04/02 02:44:33;;;;;;;7.30;2.10;;;;;;;1.90;62.00;101683.63;5093013;28;20028;-66
2022/04/02 02:46:58;;;;;;;4.88;2.10;;;;;;;1.83;62.38;101672.25;5093212;28;20425;-66
2022/04/02 02:49:23;;;;;;;4.70;2.20;;;;;;;1.82;62.14;101685.94;5074865;28;20036;-66
2022/04/02 02:51:49;;;;;;;5.65;1.95;;;;;;;1.99;61.20;101683.81;5074405;28;20047;-66
2022/04/02 02:54:14;;;;;;;5.00;2.22;;;;;;;1.92;62.05;101689.44;5074642;28;20039;-66
2022/04/02 02:56:39;;;;;;;4.30;2.20;;;;;;;1.74;63.25;101691.56;5074641;28;20073;-66
2022/04/02 02:59:05;;;;;;;5.40;2.10;;;;;;;1.78;61.66;101686.16;5074496;28;20024;-66
2022/04/02 03:01:30;;;;;;;3.67;1.98;;;;;;;1.77;62.74;101692.16;5074429;28;20025;-66
2022/04/02 03:03:55;;;;;;;3.63;1.98;;;;;;;1.69;64.01;101681.69;5092791;28;20028;-67
2022/04/02 03:06:22;;;;;;;5.35;2.33;;;;;;;1.78;63.61;101691.25;5074461;28;20133;-67
2022/04/02 03:08:48;;;;;;;5.00;1.77;;;;;;;1.69;62.05;101691.88;5092747;28;20103;-66
2022/04/02 03:11:13;;;;;;;4.68;2.13;;;;;;;1.70;63.59;101696.06;5092527;28;20130;-66
2022/04/02 03:13:39;;;;;;;5.72;2.20;;;;;;;1.63;65.07;101687.19;5092627;28;20047;-67
2022/04/02 03:16:05;;;;;;;7.72;2.10;;;;;;;1.58;64.16;101694.34;5074422;28;20035;-66
2022/04/02 03:18:30;;;;;;;2.85;1.90;;;;;;;1.62;63.52;101692.41;5074480;28;20020;-66
2022/04/02 03:20:55;;;;;;;4.03;1.77;;;;;;;1.62;63.24;101700.06;5092810;28;20111;-66
2022/04/02 03:23:21;;;;;;;3.28;2.03;;;;;;;1.60;63.53;101696.81;5092662;28;20043;-66
2022/04/02 03:25:47;;;;;;;3.40;2.17;;;;;;;1.55;63.30;101700.50;5078055;28;20024;-66
2022/04/02 03:28:12;;;;;;;4.65;2.08;;;;;;;1.52;64.15;101699.88;5077937;28;20452;-66
2022/04/02 03:30:38;;;;;;;7.93;2.20;;;;;;;1.54;63.75;101698.03;5095243;28;20024;-67
2022/04/02 03:33:04;;;;;;;4.80;2.30;;;;;;;1.54;63.44;101698.03;5096252;28;20402;-66
2022/04/02 03:35:29;;;;;;;4.85;2.30;;;;;;;1.52;64.99;101708.31;5061457;28;20094;-66
2022/04/02 03:37:55;;;;;;;4.22;2.33;;;;;;;1.46;63.92;101698.56;5096261;28;20031;-66
2022/04/02 03:40:23;;;;;;;4.63;2.08;;;;;;;1.40;64.59;101704.06;5096209;28;20020;-67
2022/04/02 03:42:49;;;;;;;5.30;2.17;;;;;;;1.45;64.34;101702.03;5095401;28;20020;-66
2022/04/02 03:45:17;;;;;;;3.70;1.80;;;;;;;1.45;64.57;101703.75;5096283;28;20035;-67
2022/04/02 03:47:43;;;;;;;8.45;2.38;;;;;;;1.42;64.65;101709.06;5096005;28;20047;-67
2022/04/02 03:50:08;;;;;;;3.70;2.22;;;;;;;1.17;64.35;101680.16;5095919;28;20032;-68
2022/04/02 03:52:34;;;;;;;4.40;2.03;;;;;;;1.35;65.07;101703.56;5095687;28;20039;-66
2022/04/02 03:54:59;;;;;;;5.07;2.40;;;;;;;1.43;64.80;101697.94;5077923;28;20031;-67
2022/04/02 03:57:24;;;;;;;9.43;2.45;;;;;;;1.49;64.65;101705.16;5095655;28;20020;-66
2022/04/02 03:59:50;;;;;;;4.47;2.10;;;;;;;1.39;65.02;101705.00;5077598;28;20085;-66
2022/04/02 04:02:16;;;;;;;3.97;2.03;;;;;;;1.26;65.23;101707.53;5095623;28;20087;-67
2022/04/02 04:04:41;;;;;;;7.93;3.42;;;;;;;1.30;64.88;101708.97;5095651;28;20023;-66
2022/04/02 04:07:07;;;;;;;5.53;2.58;;;;;;;1.34;65.22;101704.50;5095917;28;20057;-67
2022/04/02 04:09:33;;;;;;;5.78;2.38;;;;;;;1.37;65.95;101703.47;5096101;28;20035;-67
2022/04/02 04:11:59;;;;;;;6.90;2.53;;;;;;;1.36;65.87;101715.41;5077387;28;20433;-66
2022/04/02 04:14:25;;;;;;;9.88;2.50;;;;;;;1.33;65.69;101713.88;5095462;28;20028;-67
2022/04/02 04:16:52;;;;;;;4.50;2.60;;;;;;;1.26;65.84;101722.00;5096186;28;20073;-66
2022/04/02 04:19:18;;;;;;;5.20;2.70;;;;;;;1.22;66.57;101718.88;5060721;28;20024;-67
2022/04/02 04:21:43;;;;;;;7.05;3.30;;;;;;;1.21;66.17;101729.97;5095220;28;20107;-66
2022/04/02 04:24:10;;;;;;;6.25;3.67;;;;;;;1.18;68.38;101720.00;5077102;28;20464;-67
2022/04/02 04:26:36;;;;;;;7.15;4.65;;;;;;;1.18;67.11;101731.88;5095025;28;20019;-67
2022/04/02 04:29:01;;;;;;;6.68;3.72;;;;;;;1.18;66.42;101727.63;5095199;28;20405;-67
2022/04/02 04:31:27;;;;;;;6.55;3.90;;;;;;;1.14;67.44;101721.09;5095071;28;20016;-67
2022/04/02 04:33:53;;;;;;;5.78;2.65;;;;;;;1.18;66.69;101726.78;5095034;28;20103;-67
2022/04/02 04:36:19;;;;;;;5.47;2.65;;;;;;;1.20;68.22;101728.31;5076302;28;20048;-68
2022/04/02 04:38:48;;;;;;;7.50;2.67;;;;;;;1.13;66.99;101732.22;5094989;28;20027;-67
2022/04/02 04:41:14;;;;;;;4.68;2.40;;;;;;;1.20;67.34;101735.16;5094811;28;20032;-66
2022/04/02 04:43:41;;;;;;;6.38;2.65;;;;;;;1.17;68.88;101745.56;5095019;28;20070;-67
2022/04/02 04:46:07;;;;;;;6.85;2.40;;;;;;;1.18;68.03;101744.63;5094782;28;20048;-65
2022/04/02 04:48:32;;;;;;;4.93;2.25;;;;;;;1.14;68.63;101754.19;5076557;28;20027;-66
2022/04/02 04:50:58;;;;;;;5.43;2.40;;;;;;;1.13;67.44;101758.47;5068972;28;20036;-66
2022/04/02 04:53:23;;;;;;;11.40;2.17;;;;;;;1.16;68.18;101760.00;5053179;28;20025;-66
2022/04/02 04:55:48;;;;;;;8.82;2.65;;;;;;;1.15;68.59;101760.91;5053189;28;20013;-67
2022/04/02 04:58:14;;;;;;;6.43;2.53;;;;;;;1.16;69.21;101760.00;5054270;28;20017;-67
2022/04/02 05:00:41;;;;;;;5.70;2.63;;;;;;;1.04;68.99;101758.28;5052897;28;20107;-66
2022/04/02 05:03:08;;;;;;;5.25;2.45;;;;;;;1.09;69.87;101762.16;5054722;28;20112;-66
2022/04/02 05:05:38;;;;;;;5.60;2.50;;;;;;;1.07;69.56;101753.00;5054944;28;20086;-68
2022/04/02 05:08:05;;;;;;;6.22;2.90;;;;;;;1.17;68.83;101766.72;5053564;28;20030;-68
2022/04/02 05:10:37;;;;;;;5.28;2.83;;;;;;;1.05;68.69;101748.00;5054452;28;20320;-67
2022/04/02 05:13:03;;;;;;;3.80;2.40;;;;;;;1.26;68.31;101775.50;5053662;28;20086;-66
2022/04/02 05:15:29;;;;;;;4.30;2.60;;;;;;;1.26;68.30;101768.66;5053266;28;20423;-68
2022/04/02 05:17:55;;;;;;;4.18;2.60;;;;;;;1.36;68.04;101771.44;5054225;28;20028;-68
2022/04/02 05:20:21;;;;;;;5.22;2.65;;;;;;;1.33;68.07;101772.44;5052829;28;20021;-67
2022/04/02 05:22:46;;;;;;;5.25;2.70;;;;;;;1.32;67.94;101770.81;5052784;28;20036;-67
2022/04/02 05:25:11;;;;;;;5.45;2.70;;;;;;;1.29;68.27;101773.53;5052817;28;20029;-67
2022/04/02 05:27:37;;;;;;;4.15;2.50;;;;;;;1.29;68.45;101777.81;5052654;28;20029;-67
2022/04/02 05:30:04;;;;;;;4.75;2.70;;;;;;;1.33;67.92;101782.63;5054231;28;20396;-68
2022/04/02 05:32:30;;;;;;;3.53;2.40;;;;;;;1.43;67.32;101787.91;5052388;28;20029;-66
2022/04/02 05:34:55;;;;;;;4.90;2.60;;;;;;;1.55;67.73;101786.28;5053911;28;20025;-67
2022/04/02 05:37:21;;;;;;;6.00;2.90;;;;;;;1.67;67.79;101779.53;5053682;28;20031;-66
2022/04/02 05:39:46;;;;;;;5.32;2.80;;;;;;;1.55;67.35;101760.78;5052357;28;20052;-65
2022/04/02 05:42:12;;;;;;;6.93;2.75;;;;;;;1.76;66.96;101795.03;5053558;28;20017;-67
2022/04/02 05:44:40;;;;;;;4.82;2.75;;;;;;;1.87;66.64;101796.00;5052230;28;20159;-68
2022/04/02 05:47:06;;;;;;;9.15;2.75;;;;;;;1.95;64.19;101794.56;5052851;28;20043;-67
2022/04/02 05:49:32;;;;;;;5.57;2.30;;;;;;;2.06;63.98;101806.59;5052303;28;20029;-67
2022/04/02 05:51:58;;;;;;;4.80;2.50;;;;;;;2.10;64.31;101800.38;5078205;28;20036;-66
2022/04/02 05:54:23;;;;;;;6.22;2.53;;;;;;;2.23;64.33;101808.78;5059335;28;20028;-67
2022/04/02 05:56:49;;;;;;;6.32;2.60;;;;;;;2.00;63.82;101802.72;5093875;28;20028;-67
2022/04/02 05:59:15;;;;;;;6.00;2.30;;;;;;;2.28;63.24;101816.13;5075602;28;20016;-66
2022/04/02 06:01:40;;;;;;;5.88;2.50;;;;;;;2.44;62.49;101815.84;5075573;28;20024;-67
2022/04/02 06:04:06;;;;;;;8.38;2.50;;;;;;;2.42;61.75;101815.97;5093760;28;20028;-67
2022/04/02 06:06:31;;;;;;;4.82;2.75;;;;;;;2.55;62.33;101823.53;5075475;28;20024;-75
2022/04/02 06:08:57;;;;;;;4.32;2.17;;;;;;;2.34;61.98;101825.88;5093795;28;20064;-75
2022/04/02 06:11:23;;;;;;;10.57;2.50;;;;;;;2.44;61.65;101828.59;5094672;28;20089;-75
2022/04/02 06:13:49;;;;;;;8.82;2.20;;;;;;;2.61;61.69;101840.16;5075425;28;20059;-74
2022/04/02 06:16:15;;;;;;;5.50;2.05;;;;;;;2.68;60.45;101824.31;5075240;28;20028;-75
2022/04/02 06:18:40;;;;;;;4.78;2.40;;;;;;;2.75;60.16;101831.53;5075743;28;20031;-75
2022/04/02 06:21:05;;;;;;;5.60;2.65;;;;;;;2.80;60.54;101827.72;5093388;28;20020;-75
2022/04/02 06:23:31;;;;;;;7.55;2.20;;;;;;;2.82;61.30;101827.59;5075084;28;20054;-74
2022/04/02 06:25:57;;;;;;;6.43;2.35;;;;;;;2.76;60.67;101820.38;5093375;28;20517;-76
2022/04/02 06:28:23;;;;;;;4.60;2.50;;;;;;;2.73;60.49;101816.31;5093221;28;20032;-76
2022/04/02 06:30:49;;;;;;;5.05;2.25;;;;;;;2.81;60.40;101831.91;5093351;28;20030;-74
2022/04/02 06:33:14;;;;;;;4.20;2.25;;;;;;;2.79;60.78;101835.47;5093238;28;20059;-76
2022/04/02 06:35:40;;;;;;;5.85;2.38;;;;;;;2.82;60.78;101840.38;5093161;28;20024;-76
2022/04/02 06:38:05;;;;;;;5.25;2.28;;;;;;;2.88;60.68;101847.59;5093219;28;20032;-74
2022/04/02 06:40:30;;;;;;;5.97;2.30;;;;;;;2.87;60.74;101846.78;5075006;28;20535;-75
2022/04/02 06:42:57;;;;;;;3.80;2.30;;;;;;;2.93;60.93;101854.00;5074983;28;20024;-75
2022/04/02 06:45:23;;;;;;;4.80;2.25;;;;;;;2.86;61.42;101852.81;5075212;28;20368;-75
2022/04/02 06:47:48;;;;;;;6.97;2.63;;;;;;;2.85;62.77;101863.13;5074201;28;20031;-74
2022/04/02 06:50:15;;;;;;;4.85;2.40;;;;;;;2.94;61.71;101862.47;5075005;28;20471;-74
2022/04/02 06:52:42;;;;;;;4.82;2.22;;;;;;;3.00;61.25;101867.16;5093040;28;20483;-75
2022/04/02 06:55:08;;;;;;;4.45;2.30;;;;;;;3.20;60.77;101868.25;5092928;28;20016;-75
2022/04/02 06:57:41;;;;;;;7.32;2.40;;;;;;;3.22;60.83;101871.50;5074756;28;20115;-75
2022/04/02 07:00:07;;;;;;;6.85;2.42;;;;;;;3.39;60.42;101876.22;5096239;28;20023;-74
2022/04/02 07:02:32;;;;;;;4.50;2.30;;;;;;;3.65;60.41;101877.72;5096896;28;20031;-75
2022/04/02 07:04:57;;;;;;;8.55;2.47;;;;;;;3.64;59.79;101865.88;5078806;28;20024;-75
2022/04/02 07:07:23;;;;;;;5.50;2.63;;;;;;;4.06;59.22;101879.75;5096962;28;20471;-76
2022/04/02 07:09:48;;;;;;;9.27;2.20;;;;;;;7.17;51.04;101876.19;5096779;28;20072;-75
2022/04/02 07:12:13;;;;;;;8.75;2.92;;;;;;;11.24;41.44;101880.97;5096895;28;20024;-75
2022/04/02 07:14:38;;;;;;;6.63;2.50;;;;;;;11.93;38.99;101881.28;5096727;28;20020;-76
2022/04/02 07:17:04;;;;;;;6.82;2.95;;;;;;;10.82;40.98;101889.75;5096779;28;20065;-75
2022/04/02 07:19:30;;;;;;;6.47;2.38;;;;;;;13.19;37.35;101877.50;5078703;28;20038;-75
2022/04/02 07:21:55;;;;;;;6.30;2.45;;;;;;;14.49;34.15;101889.91;5096577;28;20081;-75
2022/04/02 07:24:21;;;;;;;8.40;2.38;;;;;;;15.91;31.66;101892.28;5096134;28;20027;-77
2022/04/02 07:26:48;;;;;;;8.10;2.63;;;;;;;15.39;31.67;101881.38;5078221;28;20024;-75
2022/04/02 07:29:15;;;;;;;16.73;3.17;;;;;;;14.07;32.96;101901.84;5095286;28;20038;-75
2022/04/02 07:31:41;;;;;;;6.05;2.45;;;;;;;14.52;32.08;101886.94;5096680;28;20396;-75
2022/04/02 07:34:06;;;;;;;6.43;2.40;;;;;;;14.02;34.04;101886.00;5078200;28;20027;-75
2022/04/02 07:36:45;;;;;;;7.13;2.42;;;;;;;16.40;30.89;101893.81;5096681;28;20054;-76
2022/04/02 07:39:15;;;;;;;4.18;2.03;;;;;;;15.71;29.70;101895.63;5096236;28;20107;-75
2022/04/02 07:42:02;;;;;;;8.10;2.10;;;;;;;14.43;31.35;101907.84;5077787;28;20016;-75
2022/04/02 07:44:31;;;;;;;10.25;2.30;;;;;;;14.10;33.31;101917.09;5095676;28;20035;-74
2022/04/02 07:46:57;;;;;;;6.07;2.70;;;;;;;14.06;32.91;101919.22;5094358;28;20550;-74
2022/04/02 07:49:26;;;;;;;5.35;2.30;;;;;;;14.23;33.41;101914.63;5094018;28;20059;-74
2022/04/02 07:51:53;;;;;;;5.00;2.55;;;;;;;13.87;33.22;101931.00;5060646;28;20052;-74
2022/04/02 07:54:23;;;;;;;6.63;2.47;;;;;;;14.38;32.40;101927.59;5054326;28;20050;-75
2022/04/02 07:56:50;;;;;;;6.75;2.60;;;;;;;13.23;34.84;101930.66;5054433;28;20107;-75
2022/04/02 07:59:34;;;;;;;4.30;2.30;;;;;;;14.79;32.23;101934.84;5053986;28;20032;-75
2022/04/02 08:02:01;;;;;;;8.73;2.30;;;;;;;14.29;33.49;101916.50;5053011;28;20053;-76
2022/04/02 08:04:27;;;;;;;9.20;6.82;;;;;;;12.86;34.37;101929.69;5055184;28;20099;-76
2022/04/02 08:06:54;;;;;;;6.55;2.58;;;;;;;14.03;33.37;101930.00;5053234;28;20388;-76
2022/04/02 08:09:20;;;;;;;8.57;2.70;;;;;;;12.78;35.78;101927.94;5055081;28;20033;-76
2022/04/02 08:11:48;;;;;;;6.55;2.50;;;;;;;13.68;34.48;101931.56;5054324;28;20383;-75
2022/04/02 08:14:14;;;;;;;6.75;2.50;;;;;;;12.91;35.26;101931.75;5054738;28;20473;-75
2022/04/02 08:16:42;;;;;;;3.78;2.30;;;;;;;9.73;41.06;101939.59;5053501;28;20036;-74
2022/04/02 08:19:09;;;;;;;7.88;2.45;;;;;;;13.48;35.57;101939.06;5054237;28;20049;-75
2022/04/02 08:21:34;;;;;;;6.13;2.67;;;;;;;13.07;35.66;101937.59;5054460;28;20078;-75
2022/04/02 08:24:01;;;;;;;3.38;2.25;;;;;;;15.06;33.02;101922.84;5054845;28;20029;-75
2022/04/02 08:26:38;;;;;;;3.70;2.33;;;;;;;12.03;36.94;101951.06;5055124;28;20481;-75
2022/04/02 08:29:24;;;;;;;5.47;2.50;;;;;;;10.80;39.25;101940.81;5053852;28;20036;-76
2022/04/02 08:32:02;;;;;;;8.90;4.85;;;;;;;9.89;39.95;101956.94;5055381;28;20032;-75
2022/04/02 08:34:36;;;;;;;6.38;3.00;;;;;;;10.01;39.66;101935.06;5053696;28;20036;-76
2022/04/02 08:37:06;;;;;;;5.50;2.90;;;;;;;12.40;37.19;101942.63;5053905;28;20154;-75
2022/04/02 08:39:48;;;;;;;6.43;2.80;;;;;;;12.81;36.31;101947.56;5054835;28;20024;-75
2022/04/02 08:42:38;;;;;;;4.63;2.53;;;;;;;11.72;36.01;101956.94;5055719;28;20075;-75
2022/04/02 08:45:05;;;;;;;7.20;2.90;;;;;;;12.01;36.32;101950.41;5055411;28;20507;-75
2022/04/02 08:48:05;;;;;;;6.50;2.60;;;;;;;14.25;32.35;101962.06;5053376;28;20476;-76
2022/04/02 08:50:34;;;;;;;4.28;2.63;;;;;;;15.82;31.47;101963.84;5055040;28;20108;-79
2022/04/02 08:53:17;;;;;;;4.72;2.60;;;;;;;15.14;31.86;101966.97;5094755;28;20020;-79
2022/04/02 08:55:56;;;;;;;6.70;2.45;;;;;;;13.79;32.42;101964.06;5077035;28;20054;-77
2022/04/02 08:58:34;;;;;;;5.50;2.80;;;;;;;12.15;34.78;101955.69;5076550;28;20501;-76
2022/04/02 09:01:08;;;;;;;5.30;2.25;;;;;;;12.16;35.41;101967.66;5094501;28;20471;-76
2022/04/02 09:04:09;;;;;;;7.88;2.10;;;;;;;11.49;35.07;101973.16;5094267;28;20581;-75
2022/04/02 09:06:58;;;;;;;5.60;2.38;;;;;;;11.72;33.66;101972.47;5092940;28;20035;-78
2022/04/02 09:09:54;;;;;;;5.18;2.53;;;;;;;10.94;34.74;101976.38;5075521;28;20048;-78
2022/04/02 09:12:32;;;;;;;4.22;2.30;;;;;;;11.60;34.85;101969.41;5075079;28;20043;-77
2022/04/02 09:15:07;;;;;;;5.72;2.30;;;;;;;11.37;35.38;101971.06;5094325;28;20028;-78
2022/04/02 09:17:37;;;;;;;6.30;2.40;;;;;;;10.68;36.31;101980.88;5094676;28;20024;-75
2022/04/02 09:20:30;;;;;;;4.80;1.92;;;;;;;9.00;38.76;101987.06;5094272;28;20077;-78
2022/04/02 09:23:24;;;;;;;;;;;;;;;8.58;39.32;101986.81;5094567;28;20498;-78
2022/04/02 09:26:04;;;;;;;5.20;2.20;;;;;;;9.12;37.92;101981.72;5093565;28;19912;-77
2022/04/02 09:29:07;;;;;;;5.30;2.17;;;;;;;8.97;39.06;101987.38;5074989;28;20437;-76
2022/04/02 09:31:38;;;;;;;3.85;2.25;;;;;;;8.68;39.55;101997.06;5094056;28;20107;-75
2022/04/02 09:34:40;;;;;;;4.10;2.30;;;;;;;7.01;42.89;101990.63;5094179;28;20032;-77
2022/04/02 09:37:30;;;;;;;3.45;1.95;;;;;;;7.21;42.36;101990.66;5079861;28;20482;-77
2022/04/02 09:40:09;;;;;;;3.70;2.00;;;;;;;9.43;39.59;101995.84;5094246;28;20380;-77
2022/04/02 09:42:43;;;;;;;5.43;2.10;;;;;;;8.91;38.13;101984.59;5093910;28;20028;-76
2022/04/02 09:45:09;;;;;;;5.18;2.20;;;;;;;8.92;39.68;101988.78;5059320;28;20033;-75
2022/04/02 09:48:32;;;;;;;5.05;2.17;;;;;;;8.71;39.49;101964.09;5092748;28;20016;-74
2022/04/02 09:50:58;;;;;;;6.15;2.00;;;;;;;8.62;38.19;102001.03;4989865;28;20105;-76
2022/04/02 09:53:24;;;;;;;5.93;2.08;;;;;;;9.17;37.52;101993.19;4990140;28;20026;-77
2022/04/02 09:56:26;;;;;;;3.20;1.88;;;;;;;7.75;39.28;101998.75;5039757;28;20036;-76
2022/04/02 09:59:03;;;;;;;3.33;2.00;;;;;;;8.35;40.60;101986.38;5075435;28;20020;-76
2022/04/02 10:01:33;;;;;;;4.75;1.90;;;;;;;9.08;38.09;101991.50;5075183;28;20024;-78
2022/04/02 10:04:00;;;;;;;5.43;1.88;;;;;;;8.28;37.29;101990.44;5093840;28;20093;-76
2022/04/02 10:06:25;;;;;;;6.88;1.90;;;;;;;9.85;34.48;101990.00;5093488;28;20027;-76
2022/04/02 10:08:59;;;;;;;3.08;1.60;;;;;;;9.52;35.88;101993.31;5093379;28;20059;-77
2022/04/02 10:11:28;;;;;;;3.67;1.70;;;;;;;9.59;36.84;102002.91;5093431;28;20031;-76
2022/04/02 10:13:58;;;;;;;3.22;1.80;;;;;;;8.45;38.68;101997.44;5093431;28;20422;-75
2022/04/02 10:16:25;;;;;;;3.92;2.30;;;;;;;9.39;37.35;101994.53;5075256;28;20035;-76
2022/04/02 10:18:53;;;;;;;5.60;2.13;;;;;;;8.59;39.02;101991.81;5075636;28;20034;-76
2022/04/02 10:21:20;;;;;;;4.95;2.03;;;;;;;7.89;39.79;101986.25;5075533;28;20118;-76
2022/04/02 10:23:52;;;;;;;4.25;1.75;;;;;;;7.07;41.88;101984.16;5093227;28;20063;-75
2022/04/02 10:26:22;;;;;;;6.32;2.22;;;;;;;7.32;41.87;101987.16;5075064;28;20015;-78
2022/04/02 10:28:56;;;;;;;3.58;1.88;;;;;;;7.08;42.33;101995.25;5075212;28;20102;-76
2022/04/02 10:31:36;;;;;;;5.20;2.30;;;;;;;6.87;44.24;101992.78;5074898;28;20114;-77
2022/04/02 10:34:33;;;;;;;4.25;1.85;;;;;;;7.07;44.85;101983.34;5073409;28;20016;-76
2022/04/02 10:37:08;;;;;;;4.68;2.20;;;;;;;6.93;45.04;101993.09;5072889;28;20046;-77
2022/04/02 10:39:53;;;;;;;5.68;1.98;;;;;;;6.56;47.28;102000.56;5093093;28;20016;-78
2022/04/02 10:42:32;;;;;;;3.42;2.00;;;;;;;5.97;47.54;101993.56;5075505;28;20032;-77
2022/04/02 10:45:10;;;;;;;6.78;1.77;;;;;;;5.95;46.53;101990.28;5074560;28;20028;-78
2022/04/02 10:47:50;;;;;;;5.45;2.28;;;;;;;5.75;47.58;101979.88;5076999;28;20039;-76
2022/04/02 10:50:18;;;;;;;2.75;1.90;;;;;;;5.76;48.54;101998.69;5076124;28;20027;-72
2022/04/02 10:52:47;;;;;;;3.70;2.10;;;;;;;6.26;46.55;101999.63;5074707;28;20036;-73
2022/04/02 10:55:15;;;;;;;6.80;2.33;;;;;;;6.17;46.68;101997.84;5092776;28;20034;-72
2022/04/02 10:57:40;;;;;;;4.18;2.00;;;;;;;7.65;45.10;101996.19;5092760;28;20054;-72
2022/04/02 11:00:08;;;;;;;3.85;1.98;;;;;;;7.86;41.90;101985.72;5074515;28;20055;-72
2022/04/02 11:02:44;;;;;;;3.88;2.10;;;;;;;8.71;39.71;101987.28;5092613;28;20119;-72
2022/04/02 11:05:14;;;;;;;2.97;1.83;;;;;;;7.96;40.45;101989.06;5074606;28;20110;-71
2022/04/02 11:07:45;;;;;;;4.15;2.00;;;;;;;9.99;38.14;101993.00;5092637;28;20028;-72
2022/04/02 11:10:14;;;;;;;3.03;2.20;;;;;;;8.51;39.53;101984.00;5072682;28;20472;-72
2022/04/02 11:12:44;;;;;;;3.92;2.05;;;;;;;7.84;40.59;101985.84;5074432;28;20017;-72
2022/04/02 11:15:21;;;;;;;3.75;1.80;;;;;;;9.43;39.65;101988.09;5074163;28;20028;-72
2022/04/02 11:17:48;;;;;;;3.92;1.80;;;;;;;9.78;38.18;101990.75;5074485;28;20143;-72
2022/04/02 11:20:22;;;;;;;3.30;1.90;;;;;;;9.27;38.74;101990.56;5092346;28;20028;-73
2022/04/02 11:22:57;;;;;;;4.63;1.95;;;;;;;10.36;38.67;101977.22;5091088;28;20020;-73
2022/04/02 11:25:28;;;;;;;3.17;1.90;;;;;;;8.56;38.78;101984.38;5092353;28;20098;-71
2022/04/02 11:27:54;;;;;;;4.15;1.80;;;;;;;8.96;38.63;101993.50;5074429;28;20368;-72
2022/04/02 11:30:21;;;;;;;3.30;2.03;;;;;;;9.21;39.11;101994.53;5074152;28;20024;-72
2022/04/02 11:32:48;;;;;;;3.70;1.77;;;;;;;8.85;40.42;101993.72;5074317;28;20416;-73
2022/04/02 11:35:24;;;;;;;2.42;1.60;;;;;;;8.42;38.84;101997.75;5092397;28;20235;-73
2022/04/02 11:38:02;;;;;;;5.47;2.08;;;;;;;7.89;41.53;101980.31;5074470;28;20028;-72
2022/04/02 11:40:29;;;;;;;4.28;1.88;;;;;;;8.00;40.15;101987.03;5092503;28;20028;-72
2022/04/02 11:42:57;;;;;;;3.53;2.00;;;;;;;8.34;40.54;101995.88;5092580;28;20141;-70
2022/04/02 11:45:23;;;;;;;6.05;2.05;;;;;;;8.57;40.05;101995.50;5092763;28;20055;-73